createdAt,value
2023-05-06T00:00:56.628Z,101450.69
2023-05-06T00:01:58.097Z,101453.41
2023-05-06T00:03:02.321Z,101453.41
2023-05-06T00:04:03.968Z,101445.28
2023-05-06T00:05:06.011Z,101447.06
2023-05-06T00:06:09.073Z,101449.78
2023-05-06T00:07:10.507Z,101447.97
2023-05-06T00:08:12.279Z,101452.53
2023-05-06T00:09:13.724Z,101452.53
2023-05-06T00:10:15.772Z,101454.34
2023-05-06T00:11:17.214Z,101455.28
2023-05-06T00:12:18.662Z,101449.81
2023-05-06T00:13:20.291Z,101463.44
2023-05-06T00:14:21.721Z,101457.06
2023-05-06T00:15:23.186Z,101467.94
2023-05-06T00:16:24.659Z,101470.69
2023-05-06T00:17:26.179Z,101464.31
2023-05-06T00:18:27.641Z,101458.91
2023-05-06T00:19:29.097Z,101472.53
2023-05-06T00:20:31.324Z,101469.81
2023-05-06T00:21:32.793Z,101469.84
2023-05-06T00:22:34.247Z,101468.03
2023-05-06T00:23:35.674Z,101468.94
2023-05-06T00:24:37.084Z,101468.06
2023-05-06T00:25:38.537Z,101468.97
2023-05-06T00:26:39.967Z,101464.44
2023-05-06T00:27:41.372Z,101462.63
2023-05-06T00:28:42.791Z,101468.06
2023-05-06T00:29:44.217Z,101454.44
2023-05-06T00:30:45.654Z,101449.00
2023-05-06T00:31:47.127Z,101445.41
2023-05-06T00:32:48.711Z,101440.81
2023-05-06T00:33:50.181Z,101452.63
2023-05-06T00:34:51.651Z,101442.66
2023-05-06T00:35:53.221Z,101430.88
2023-05-06T00:36:54.686Z,101431.75
2023-05-06T00:37:58.601Z,101428.16
2023-05-06T00:39:00.181Z,101424.56
2023-05-06T00:40:02.535Z,101420.00
2023-05-06T00:41:04.102Z,101417.28
2023-05-06T00:42:05.591Z,101409.16
2023-05-06T00:43:07.342Z,101408.25
2023-05-06T00:44:08.751Z,101400.09
2023-05-06T00:45:10.851Z,101403.72
2023-05-06T00:46:16.551Z,101395.56
2023-05-06T00:47:18.935Z,101401.00
2023-05-06T00:48:20.735Z,101395.59
2023-05-06T00:49:23.244Z,101391.06
2023-05-06T00:50:25.551Z,101399.19
2023-05-06T00:51:27.449Z,101403.75
2023-05-06T00:52:28.916Z,101397.41
2023-05-06T00:53:30.493Z,101402.84
2023-05-06T00:54:32.043Z,101395.59
2023-05-06T00:55:33.719Z,101401.94
2023-05-06T00:56:35.293Z,101391.94
2023-05-06T00:57:37.373Z,101394.69
2023-05-06T00:58:38.812Z,101398.31
2023-05-06T00:59:40.336Z,101391.06
2023-05-06T01:00:42.327Z,101385.63
2023-05-06T01:01:43.689Z,101381.97
2023-05-06T01:02:47.844Z,101383.78
2023-05-06T01:03:49.831Z,101372.88
2023-05-06T01:04:51.704Z,101374.69
2023-05-06T01:06:11.684Z,101366.56
2023-05-06T01:07:26.627Z,101376.56
2023-05-06T01:08:41.904Z,101368.41
2023-05-06T01:10:03.044Z,101360.28
2023-05-06T01:11:15.805Z,101372.03
2023-05-06T01:12:27.561Z,101370.22
2023-05-06T01:13:52.197Z,101374.75
2023-05-06T01:15:16.672Z,101374.78
2023-05-06T01:16:23.281Z,101360.31
2023-05-06T01:17:28.212Z,101363.00
2023-05-06T01:18:32.344Z,101370.25
2023-05-06T01:19:42.277Z,101367.53
2023-05-06T01:20:47.664Z,101370.25
2023-05-06T01:21:54.665Z,101363.00
2023-05-06T01:22:56.549Z,101366.63
2023-05-06T01:23:58.680Z,101368.47
2023-05-06T01:25:00.203Z,101363.03
2023-05-06T01:26:01.637Z,101365.78
2023-05-06T01:27:03.135Z,101366.66
2023-05-06T01:28:07.405Z,101363.03
2023-05-06T01:29:08.865Z,101372.94
2023-05-06T01:30:10.959Z,101359.41
2023-05-06T01:31:17.274Z,101366.66
2023-05-06T01:32:44.832Z,101363.03
2023-05-06T01:33:46.228Z,101362.16
2023-05-06T01:35:03.315Z,101363.06
2023-05-06T01:36:24.285Z,101363.03
2023-05-06T01:37:47.382Z,101361.25
2023-05-06T01:39:07.645Z,101369.41
2023-05-06T01:40:10.065Z,101369.41
2023-05-06T01:41:15.720Z,101362.16
2023-05-06T01:42:18.207Z,101365.81
2023-05-06T01:43:21.960Z,101355.84
2023-05-06T01:44:24.814Z,101366.69
2023-05-06T01:45:30.504Z,101356.72
2023-05-06T01:46:32.936Z,101355.81
2023-05-06T01:47:36.012Z,101364.88
2023-05-06T01:48:39.350Z,101365.81
2023-05-06T01:49:41.092Z,101364.91
2023-05-06T01:50:43.582Z,101357.63
2023-05-06T01:51:53.073Z,101365.78
2023-05-06T01:53:01.493Z,101360.34
2023-05-06T01:54:03.274Z,101363.06
2023-05-06T01:55:05.460Z,101369.41
2023-05-06T01:56:07.263Z,101365.78
2023-05-06T01:57:08.698Z,101361.28
2023-05-06T01:58:10.124Z,101366.72
2023-05-06T01:59:11.566Z,101362.16
2023-05-06T02:00:13.101Z,101353.13
2023-05-06T02:01:14.548Z,101363.09
2023-05-06T02:02:16.083Z,101365.81
2023-05-06T02:03:17.655Z,101362.19
2023-05-06T02:04:19.146Z,101351.28
2023-05-06T02:05:20.675Z,101366.72
2023-05-06T02:06:22.133Z,101374.88
2023-05-06T02:07:23.584Z,101370.31
2023-05-06T02:08:25.035Z,101368.53
2023-05-06T02:09:26.525Z,101373.97
2023-05-06T02:10:27.965Z,101374.84
2023-05-06T02:11:29.480Z,101364.91
2023-05-06T02:12:30.986Z,101376.66
2023-05-06T02:13:32.432Z,101374.84
2023-05-06T02:14:33.929Z,101372.16
2023-05-06T02:15:35.399Z,101377.59
2023-05-06T02:16:36.831Z,101372.19
2023-05-06T02:17:38.686Z,101373.06
2023-05-06T02:18:41.372Z,101375.78
2023-05-06T02:19:42.776Z,101372.16
2023-05-06T02:20:44.160Z,101364.91
2023-05-06T02:21:45.608Z,101371.22
2023-05-06T02:22:47.045Z,101370.34
2023-05-06T02:23:48.486Z,101373.97
2023-05-06T02:24:49.885Z,101379.38
2023-05-06T02:25:51.778Z,101370.34
2023-05-06T02:26:53.181Z,101373.03
2023-05-06T02:27:54.615Z,101366.72
2023-05-06T02:28:56.014Z,101377.59
2023-05-06T02:29:57.421Z,101371.25
2023-05-06T02:30:58.923Z,101374.84
2023-05-06T02:32:00.538Z,101368.53
2023-05-06T02:33:02.760Z,101372.16
2023-05-06T02:34:05.037Z,101370.34
2023-05-06T02:35:07.394Z,101367.63
2023-05-06T02:36:08.977Z,101372.19
2023-05-06T02:37:10.418Z,101372.19
2023-05-06T02:38:11.825Z,101372.16
2023-05-06T02:39:13.290Z,101380.31
2023-05-06T02:40:14.921Z,101369.44
2023-05-06T02:41:16.337Z,101371.25
2023-05-06T02:42:17.940Z,101373.97
2023-05-06T02:43:19.392Z,101383.91
2023-05-06T02:44:20.801Z,101380.31
2023-05-06T02:45:22.237Z,101375.81
2023-05-06T02:46:23.777Z,101379.41
2023-05-06T02:47:25.257Z,101381.22
2023-05-06T02:48:26.826Z,101380.34
2023-05-06T02:49:28.242Z,101373.97
2023-05-06T02:50:29.640Z,101374.91
2023-05-06T02:51:31.189Z,101373.97
2023-05-06T02:52:33.348Z,101378.50
2023-05-06T02:53:34.807Z,101373.09
2023-05-06T02:54:36.312Z,101366.75
2023-05-06T02:55:37.700Z,101368.53
2023-05-06T02:56:39.094Z,101366.75
2023-05-06T02:57:40.488Z,101359.50
2023-05-06T02:58:41.946Z,101358.59
2023-05-06T02:59:43.358Z,101368.56
2023-05-06T03:00:44.857Z,101364.94
2023-05-06T03:01:46.248Z,101368.59
2023-05-06T03:02:47.745Z,101364.97
2023-05-06T03:03:49.199Z,101364.94
2023-05-06T03:04:50.900Z,101364.06
2023-05-06T03:05:52.312Z,101368.56
2023-05-06T03:06:53.803Z,101370.41
2023-05-06T03:07:55.374Z,101370.38
2023-05-06T03:08:57.176Z,101367.66
2023-05-06T03:09:58.664Z,101380.34
2023-05-06T03:11:00.192Z,101365.88
2023-05-06T03:12:02.150Z,101371.34
2023-05-06T03:13:03.580Z,101369.50
2023-05-06T03:14:05.138Z,101365.88
2023-05-06T03:15:07.182Z,101365.91
2023-05-06T03:16:13.492Z,101365.91
2023-05-06T03:17:15.168Z,101372.25
2023-05-06T03:18:16.560Z,101370.41
2023-05-06T03:19:17.998Z,101360.47
2023-05-06T03:20:20.406Z,101367.72
2023-05-06T03:21:21.857Z,101355.94
2023-05-06T03:22:23.301Z,101355.03
2023-05-06T03:23:24.676Z,101360.47
2023-05-06T03:24:26.131Z,101363.19
2023-05-06T03:25:27.540Z,101366.81
2023-05-06T03:26:28.983Z,101363.22
2023-05-06T03:27:30.493Z,101362.28
2023-05-06T03:28:32.058Z,101365.94
2023-05-06T03:29:33.484Z,101366.84
2023-05-06T03:30:34.916Z,101369.56
2023-05-06T03:31:36.469Z,101363.19
2023-05-06T03:32:38.208Z,101362.28
2023-05-06T03:33:39.683Z,101359.56
2023-05-06T03:34:41.089Z,101365.03
2023-05-06T03:35:42.542Z,101358.69
2023-05-06T03:36:43.997Z,101357.78
2023-05-06T03:37:45.427Z,101365.03
2023-05-06T03:38:46.866Z,101355.97
2023-05-06T03:39:48.365Z,101349.63
2023-05-06T03:40:50.089Z,101343.28
2023-05-06T03:41:51.519Z,101350.50
2023-05-06T03:42:52.932Z,101350.53
2023-05-06T03:43:55.677Z,101344.19
2023-05-06T03:44:57.088Z,101359.59
2023-05-06T03:45:58.929Z,101354.19
2023-05-06T03:47:00.564Z,101357.81
2023-05-06T03:48:01.988Z,101355.06
2023-05-06T03:49:03.514Z,101340.59
2023-05-06T03:50:05.467Z,101364.13
2023-05-06T03:51:06.990Z,101358.69
2023-05-06T03:52:08.528Z,101356.91
2023-05-06T03:53:09.979Z,101354.19
2023-05-06T03:54:11.388Z,101352.34
2023-05-06T03:55:12.862Z,101355.06
2023-05-06T03:56:14.349Z,101344.25
2023-05-06T03:57:16.059Z,101341.50
2023-05-06T03:58:17.466Z,101346.91
2023-05-06T03:59:18.945Z,101347.84
2023-05-06T04:00:20.755Z,101346.94
2023-05-06T04:01:22.201Z,101346.03
2023-05-06T04:02:23.962Z,101343.31
2023-05-06T04:03:25.617Z,101338.78
2023-05-06T04:04:27.322Z,101338.78
2023-05-06T04:05:28.794Z,101346.94
2023-05-06T04:06:30.323Z,101341.53
2023-05-06T04:07:31.755Z,101339.72
2023-05-06T04:08:33.206Z,101340.59
2023-05-06T04:09:34.717Z,101345.13
2023-05-06T04:10:40.336Z,101345.13
2023-05-06T04:11:41.716Z,101348.75
2023-05-06T04:12:43.161Z,101343.31
2023-05-06T04:13:44.667Z,101341.53
2023-05-06T04:14:46.060Z,101351.47
2023-05-06T04:15:48.728Z,101347.88
2023-05-06T04:16:50.484Z,101347.84
2023-05-06T04:17:52.021Z,101344.22
2023-05-06T04:18:53.647Z,101342.44
2023-05-06T04:19:55.488Z,101351.47
2023-05-06T04:20:56.986Z,101354.19
2023-05-06T04:21:58.603Z,101353.28
2023-05-06T04:23:00.021Z,101356.91
2023-05-06T04:24:01.422Z,101356.88
2023-05-06T04:25:03.021Z,101362.34
2023-05-06T04:26:05.509Z,101359.59
2023-05-06T04:27:07.437Z,101357.78
2023-05-06T04:28:10.778Z,101360.50
2023-05-06T04:29:12.477Z,101356.88
2023-05-06T04:30:14.046Z,101360.53
2023-05-06T04:31:15.584Z,101355.09
2023-05-06T04:32:17.990Z,101356.91
2023-05-06T04:33:19.565Z,101352.38
2023-05-06T04:34:21.059Z,101361.41
2023-05-06T04:35:23.460Z,101363.25
2023-05-06T04:36:24.956Z,101370.47
2023-05-06T04:37:28.311Z,101366.84
2023-05-06T04:38:30.512Z,101368.66
2023-05-06T04:39:32.015Z,101359.63
2023-05-06T04:40:36.449Z,101368.66
2023-05-06T04:41:38.060Z,101369.56
2023-05-06T04:42:39.499Z,101372.28
2023-05-06T04:43:41.431Z,101372.28
2023-05-06T04:44:43.452Z,101372.28
2023-05-06T04:45:49.587Z,101375.91
2023-05-06T04:46:51.280Z,101372.28
2023-05-06T04:47:53.177Z,101372.28
2023-05-06T04:48:55.016Z,101370.47
2023-05-06T04:49:57.088Z,101377.69
2023-05-06T04:50:58.560Z,101368.66
2023-05-06T04:52:00.000Z,101381.31
2023-05-06T04:53:01.476Z,101381.34
2023-05-06T04:54:03.041Z,101381.34
2023-05-06T04:55:04.898Z,101384.03
2023-05-06T04:56:06.850Z,101379.53
2023-05-06T04:57:08.282Z,101381.31
2023-05-06T04:58:09.740Z,101375.00
2023-05-06T04:59:11.204Z,101376.81
2023-05-06T05:00:12.920Z,101382.22
2023-05-06T05:01:14.379Z,101376.81
2023-05-06T05:02:15.972Z,101381.31
2023-05-06T05:03:17.596Z,101384.94
2023-05-06T05:04:19.109Z,101382.22
2023-05-06T05:05:20.864Z,101384.06
2023-05-06T05:06:22.391Z,101385.88
2023-05-06T05:07:23.863Z,101383.16
2023-05-06T05:08:25.296Z,101397.63
2023-05-06T05:09:26.718Z,101386.75
2023-05-06T05:10:28.164Z,101389.50
2023-05-06T05:11:29.571Z,101388.56
2023-05-06T05:12:31.254Z,101394.00
2023-05-06T05:13:32.671Z,101399.44
2023-05-06T05:14:34.082Z,101398.50
2023-05-06T05:15:35.461Z,101390.38
2023-05-06T05:16:37.145Z,101390.38
2023-05-06T05:17:38.732Z,101401.25
2023-05-06T05:18:40.164Z,101400.34
2023-05-06T05:19:41.571Z,101397.63
2023-05-06T05:20:42.987Z,101402.16
2023-05-06T05:21:44.400Z,101397.59
2023-05-06T05:22:45.843Z,101399.44
2023-05-06T05:23:47.236Z,101404.88
2023-05-06T05:24:48.670Z,101398.53
2023-05-06T05:25:50.193Z,101401.25
2023-05-06T05:26:51.662Z,101400.34
2023-05-06T05:27:53.185Z,101397.63
2023-05-06T05:28:54.621Z,101403.06
2023-05-06T05:29:56.622Z,101399.44
2023-05-06T05:31:01.963Z,101399.44
2023-05-06T05:32:03.510Z,101400.34
2023-05-06T05:33:05.012Z,101400.31
2023-05-06T05:34:06.636Z,101402.16
2023-05-06T05:35:10.598Z,101398.53
2023-05-06T05:36:15.150Z,101396.72
2023-05-06T05:37:16.593Z,101397.59
2023-05-06T05:38:18.071Z,101385.88
2023-05-06T05:39:19.508Z,101392.19
2023-05-06T05:40:21.024Z,101398.53
2023-05-06T05:41:22.538Z,101393.09
2023-05-06T05:42:24.029Z,101385.84
2023-05-06T05:43:26.889Z,101398.53
2023-05-06T05:44:28.349Z,101396.72
2023-05-06T05:45:29.821Z,101399.44
2023-05-06T05:46:31.588Z,101399.44
2023-05-06T05:47:33.095Z,101398.53
2023-05-06T05:48:34.913Z,101401.25
2023-05-06T05:49:36.337Z,101403.97
2023-05-06T05:50:37.775Z,101403.97
2023-05-06T05:51:39.238Z,101404.88
2023-05-06T05:52:40.913Z,101401.25
2023-05-06T05:53:42.524Z,101401.25
2023-05-06T05:54:43.957Z,101397.63
2023-05-06T05:55:45.330Z,101404.84
2023-05-06T05:56:46.753Z,101401.25
2023-05-06T05:57:48.175Z,101398.53
2023-05-06T05:58:49.797Z,101397.63
2023-05-06T05:59:51.196Z,101381.34
2023-05-06T06:00:52.652Z,101406.69
2023-05-06T06:01:54.125Z,101406.66
2023-05-06T06:02:55.649Z,101401.25
2023-05-06T06:03:58.063Z,101405.75
2023-05-06T06:04:59.855Z,101406.66
2023-05-06T06:06:01.417Z,101409.38
2023-05-06T06:07:02.903Z,101410.31
2023-05-06T06:08:04.788Z,101408.47
2023-05-06T06:09:06.458Z,101402.13
2023-05-06T06:10:08.609Z,101403.97
2023-05-06T06:11:10.008Z,101406.66
2023-05-06T06:12:11.439Z,101406.66
2023-05-06T06:13:13.459Z,101399.41
2023-05-06T06:14:14.807Z,101401.25
2023-05-06T06:15:16.224Z,101401.22
2023-05-06T06:16:17.704Z,101400.34
2023-05-06T06:17:19.225Z,101397.63
2023-05-06T06:18:20.724Z,101406.66
2023-05-06T06:19:22.161Z,101407.59
2023-05-06T06:20:23.547Z,101404.84
2023-05-06T06:21:25.046Z,101411.19
2023-05-06T06:22:26.442Z,101411.19
2023-05-06T06:23:27.846Z,101420.25
2023-05-06T06:24:29.303Z,101417.53
2023-05-06T06:25:30.860Z,101421.16
2023-05-06T06:26:32.296Z,101424.75
2023-05-06T06:27:36.843Z,101424.78
2023-05-06T06:28:39.250Z,101421.16
2023-05-06T06:29:40.747Z,101432.00
2023-05-06T06:30:42.128Z,101428.38
2023-05-06T06:31:43.564Z,101430.19
2023-05-06T06:32:53.786Z,101425.66
2023-05-06T06:33:55.225Z,101423.88
2023-05-06T06:34:56.643Z,101427.50
2023-05-06T06:35:58.380Z,101432.94
2023-05-06T06:36:59.855Z,101426.59
2023-05-06T06:38:01.546Z,101432.94
2023-05-06T06:39:03.390Z,101436.56
2023-05-06T06:40:05.465Z,101436.53
2023-05-06T06:41:07.216Z,101432.00
2023-05-06T06:42:08.602Z,101434.75
2023-05-06T06:43:10.010Z,101431.13
2023-05-06T06:44:11.558Z,101425.66
2023-05-06T06:45:13.931Z,101432.03
2023-05-06T06:46:15.621Z,101435.63
2023-05-06T06:47:17.134Z,101433.84
2023-05-06T06:48:18.903Z,101442.00
2023-05-06T06:49:20.324Z,101432.03
2023-05-06T06:50:21.879Z,101437.47
2023-05-06T06:51:23.344Z,101432.03
2023-05-06T06:52:24.885Z,101432.03
2023-05-06T06:53:26.322Z,101436.53
2023-05-06T06:54:27.817Z,101432.94
2023-05-06T06:55:29.249Z,101435.63
2023-05-06T06:56:31.789Z,101434.75
2023-05-06T06:57:33.232Z,101432.94
2023-05-06T06:58:34.617Z,101432.03
2023-05-06T06:59:36.024Z,101437.47
2023-05-06T07:00:37.733Z,101441.06
2023-05-06T07:01:41.476Z,101438.34
2023-05-06T07:02:43.090Z,101442.88
2023-05-06T07:03:44.566Z,101435.66
2023-05-06T07:04:46.076Z,101430.22
2023-05-06T07:05:48.122Z,101432.94
2023-05-06T07:06:49.452Z,101439.25
2023-05-06T07:07:50.887Z,101441.06
2023-05-06T07:08:52.360Z,101430.22
2023-05-06T07:09:53.790Z,101430.19
2023-05-06T07:10:55.502Z,101438.38
2023-05-06T07:11:58.510Z,101430.22
2023-05-06T07:12:59.971Z,101434.72
2023-05-06T07:14:01.450Z,101430.22
2023-05-06T07:15:06.765Z,101432.00
2023-05-06T07:16:08.236Z,101436.56
2023-05-06T07:17:09.646Z,101435.63
2023-05-06T07:18:11.218Z,101439.25
2023-05-06T07:19:12.706Z,101442.00
2023-05-06T07:20:14.154Z,101433.84
2023-05-06T07:21:15.579Z,101442.88
2023-05-06T07:22:17.025Z,101436.56
2023-05-06T07:23:18.448Z,101442.88
2023-05-06T07:24:19.866Z,101443.78
2023-05-06T07:25:21.256Z,101443.78
2023-05-06T07:26:22.666Z,101449.22
2023-05-06T07:27:24.180Z,101442.88
2023-05-06T07:28:25.805Z,101448.31
2023-05-06T07:29:27.276Z,101445.59
2023-05-06T07:30:28.841Z,101446.47
2023-05-06T07:31:32.894Z,101449.22
2023-05-06T07:32:34.328Z,101452.84
2023-05-06T07:33:35.807Z,101451.91
2023-05-06T07:34:37.261Z,101450.09
2023-05-06T07:35:38.696Z,101448.31
2023-05-06T07:36:40.862Z,101453.72
2023-05-06T07:37:42.373Z,101449.22
2023-05-06T07:38:43.784Z,101459.19
2023-05-06T07:39:45.387Z,101457.38
2023-05-06T07:40:46.795Z,101458.25
2023-05-06T07:41:48.208Z,101459.19
2023-05-06T07:42:49.669Z,101452.84
2023-05-06T07:43:51.292Z,101462.81
2023-05-06T07:44:52.675Z,101458.28
2023-05-06T07:46:02.126Z,101463.72
2023-05-06T07:47:03.843Z,101457.34
2023-05-06T07:48:05.886Z,101459.16
2023-05-06T07:49:07.272Z,101460.97
2023-05-06T07:50:09.007Z,101460.97
2023-05-06T07:51:10.561Z,101456.47
2023-05-06T07:52:11.993Z,101460.97
2023-05-06T07:53:13.860Z,101453.75
2023-05-06T07:54:15.356Z,101455.56
2023-05-06T07:55:16.920Z,101462.81
2023-05-06T07:56:18.440Z,101463.69
2023-05-06T07:57:19.860Z,101456.44
2023-05-06T07:58:21.285Z,101463.72
2023-05-06T07:59:23.469Z,101456.44
2023-05-06T08:00:24.891Z,101457.34
2023-05-06T08:01:28.933Z,101461.88
2023-05-06T08:02:31.946Z,101457.38
2023-05-06T08:03:33.548Z,101466.41
2023-05-06T08:04:35.893Z,101467.31
2023-05-06T08:05:37.413Z,101471.84
2023-05-06T08:06:39.007Z,101467.34
2023-05-06T08:07:41.838Z,101475.47
2023-05-06T08:08:43.282Z,101477.28
2023-05-06T08:09:44.996Z,101480.00
2023-05-06T08:10:46.441Z,101476.38
2023-05-06T08:11:48.121Z,101479.09
2023-05-06T08:12:49.594Z,101483.63
2023-05-06T08:13:51.137Z,101473.66
2023-05-06T08:14:54.731Z,101482.72
2023-05-06T08:15:56.196Z,101488.16
2023-05-06T08:16:57.671Z,101485.44
2023-05-06T08:18:07.045Z,101488.16
2023-05-06T08:19:15.911Z,101489.97
2023-05-06T08:20:17.332Z,101488.16
2023-05-06T08:21:18.729Z,101483.63
2023-05-06T08:22:20.181Z,101491.78
2023-05-06T08:23:21.749Z,101488.16
2023-05-06T08:24:23.162Z,101491.78
2023-05-06T08:25:24.581Z,101491.78
2023-05-06T08:26:26.111Z,101492.72
2023-05-06T08:27:27.494Z,101494.50
2023-05-06T08:28:29.349Z,101495.41
2023-05-06T08:29:30.779Z,101488.16
2023-05-06T08:30:32.223Z,101495.41
2023-05-06T08:31:33.856Z,101496.31
2023-05-06T08:32:35.721Z,101493.59
2023-05-06T08:33:37.230Z,101488.16
2023-05-06T08:34:38.729Z,101490.88
2023-05-06T08:35:40.969Z,101493.59
2023-05-06T08:36:42.614Z,101499.94
2023-05-06T08:37:44.078Z,101493.59
2023-05-06T08:38:50.481Z,101493.59
2023-05-06T08:39:51.942Z,101493.59
2023-05-06T08:40:54.678Z,101499.94
2023-05-06T08:41:57.910Z,101492.69
2023-05-06T08:42:59.906Z,101491.78
2023-05-06T08:44:01.956Z,101495.41
2023-05-06T08:45:03.641Z,101498.13
2023-05-06T08:46:05.136Z,101496.28
2023-05-06T08:47:06.769Z,101500.81
2023-05-06T08:48:09.140Z,101499.00
2023-05-06T08:49:10.936Z,101494.50
2023-05-06T08:50:12.769Z,101498.13
2023-05-06T08:51:17.874Z,101495.38
2023-05-06T08:52:21.297Z,101504.44
2023-05-06T08:53:22.970Z,101507.16
2023-05-06T08:54:27.460Z,101511.72
2023-05-06T08:55:30.772Z,101508.97
2023-05-06T08:56:33.481Z,101512.59
2023-05-06T08:57:35.513Z,101505.34
2023-05-06T08:58:38.588Z,101515.34
2023-05-06T08:59:41.508Z,101518.94
2023-05-06T09:00:43.546Z,101515.34
2023-05-06T09:01:44.948Z,101521.66
2023-05-06T09:02:46.569Z,101509.88
2023-05-06T09:03:48.781Z,101521.66
2023-05-06T09:04:52.289Z,101527.13
2023-05-06T09:05:54.217Z,101522.59
2023-05-06T09:06:57.794Z,101521.66
2023-05-06T09:07:59.242Z,101524.38
2023-05-06T09:09:00.798Z,101526.22
2023-05-06T09:10:06.698Z,101533.44
2023-05-06T09:11:29.234Z,101528.00
2023-05-06T09:12:30.750Z,101527.09
2023-05-06T09:13:32.256Z,101526.19
2023-05-06T09:14:33.650Z,101521.69
2023-05-06T09:15:42.681Z,101526.22
2023-05-06T09:16:47.242Z,101523.50
2023-05-06T09:17:48.727Z,101522.59
2023-05-06T09:18:50.168Z,101520.78
2023-05-06T09:19:59.254Z,101521.66
2023-05-06T09:21:04.283Z,101530.75
2023-05-06T09:22:06.029Z,101523.50
2023-05-06T09:23:09.438Z,101526.19
2023-05-06T09:24:12.836Z,101529.84
2023-05-06T09:25:14.700Z,101529.84
2023-05-06T09:26:16.327Z,101532.56
2023-05-06T09:27:17.760Z,101532.53
2023-05-06T09:28:19.228Z,101531.63
2023-05-06T09:29:20.911Z,101527.09
2023-05-06T09:30:22.338Z,101528.03
2023-05-06T09:31:25.968Z,101530.75
2023-05-06T09:32:28.461Z,101529.84
2023-05-06T09:33:29.944Z,101540.69
2023-05-06T09:34:31.426Z,101534.38
2023-05-06T09:35:43.263Z,101537.09
2023-05-06T09:36:45.233Z,101529.84
2023-05-06T09:37:46.849Z,101538.00
2023-05-06T09:38:48.296Z,101537.09
2023-05-06T09:39:53.338Z,101533.44
2023-05-06T09:40:55.315Z,101528.91
2023-05-06T09:41:56.764Z,101532.53
2023-05-06T09:42:58.367Z,101537.06
2023-05-06T09:43:59.818Z,101539.78
2023-05-06T09:45:02.341Z,101531.59
2023-05-06T09:46:06.022Z,101528.88
2023-05-06T09:47:07.585Z,101520.75
2023-05-06T09:48:09.702Z,101526.16
2023-05-06T09:49:11.938Z,101522.53
2023-05-06T09:50:14.024Z,101528.88
2023-05-06T09:51:15.902Z,101533.41
2023-05-06T09:52:19.312Z,101534.28
2023-05-06T09:53:22.186Z,101531.56
2023-05-06T09:54:24.606Z,101525.19
2023-05-06T09:55:27.396Z,101530.63
2023-05-06T09:56:31.096Z,101528.75
2023-05-06T09:57:33.309Z,101533.31
2023-05-06T09:58:35.951Z,101523.34
2023-05-06T09:59:38.008Z,101525.16
2023-05-06T10:00:39.858Z,101530.56
2023-05-06T10:01:41.938Z,101535.06
2023-05-06T10:02:45.745Z,101532.38
2023-05-06T10:03:48.961Z,101532.41
2023-05-06T10:04:51.114Z,101533.34
2023-05-06T10:05:54.424Z,101536.94
2023-05-06T10:06:56.671Z,101529.69
2023-05-06T10:07:58.986Z,101535.13
2023-05-06T10:09:01.821Z,101538.75
2023-05-06T10:10:04.558Z,101544.19
2023-05-06T10:11:06.924Z,101538.75
2023-05-06T10:12:08.945Z,101531.47
2023-05-06T10:13:10.531Z,101531.44
2023-05-06T10:14:12.041Z,101530.53
2023-05-06T10:15:13.660Z,101542.31
2023-05-06T10:16:15.937Z,101531.44
2023-05-06T10:17:18.970Z,101540.53
2023-05-06T10:18:21.797Z,101532.38
2023-05-06T10:19:25.767Z,101532.38
2023-05-06T10:20:30.271Z,101544.16
2023-05-06T10:21:35.870Z,101546.88
2023-05-06T10:22:47.667Z,101547.81
2023-05-06T10:23:57.295Z,101546.91
2023-05-06T10:25:06.252Z,101543.25
2023-05-06T10:26:11.289Z,101547.81
2023-05-06T10:27:14.002Z,101557.78
2023-05-06T10:28:19.534Z,101553.25
2023-05-06T10:29:35.428Z,101545.97
2023-05-06T10:30:38.869Z,101553.25
2023-05-06T10:31:49.017Z,101555.09
2023-05-06T10:32:52.558Z,101547.81
2023-05-06T10:33:54.806Z,101548.72
2023-05-06T10:34:58.626Z,101542.34
2023-05-06T10:36:07.749Z,101552.34
2023-05-06T10:37:11.521Z,101556.00
2023-05-06T10:38:37.667Z,101563.28
2023-05-06T10:39:42.232Z,101558.75
2023-05-06T10:40:44.531Z,101552.38
2023-05-06T10:41:47.839Z,101560.56
2023-05-06T10:42:49.273Z,101547.84
2023-05-06T10:43:56.558Z,101555.09
2023-05-06T10:45:06.087Z,101554.19
2023-05-06T10:46:18.210Z,101556.91
2023-05-06T10:47:19.918Z,101551.50
2023-05-06T10:48:21.330Z,101559.63
2023-05-06T10:49:22.780Z,101559.63
2023-05-06T10:50:27.964Z,101563.28
2023-05-06T10:51:29.531Z,101558.75
2023-05-06T10:52:58.872Z,101563.28
2023-05-06T10:54:11.054Z,101558.72
2023-05-06T10:55:36.415Z,101556.00
2023-05-06T10:56:47.947Z,101558.75
2023-05-06T10:57:55.630Z,101558.75
2023-05-06T10:58:57.828Z,101557.84
2023-05-06T10:59:59.399Z,101563.31
2023-05-06T11:01:00.853Z,101560.56
2023-05-06T11:02:02.217Z,101554.22
2023-05-06T11:03:23.914Z,101562.38
2023-05-06T11:04:25.762Z,101563.28
2023-05-06T11:05:27.408Z,101556.00
2023-05-06T11:06:32.920Z,101566.88
2023-05-06T11:07:34.385Z,101558.72
2023-05-06T11:08:36.076Z,101561.47
2023-05-06T11:10:00.846Z,101564.19
2023-05-06T11:11:45.664Z,101565.13
2023-05-06T11:12:52.747Z,101557.84
2023-05-06T11:13:54.382Z,101566.00
2023-05-06T11:15:19.488Z,101569.59
2023-05-06T11:16:49.926Z,101566.91
2023-05-06T11:17:53.094Z,101569.66
2023-05-06T11:18:55.415Z,101566.00
2023-05-06T11:20:26.614Z,101568.72
2023-05-06T11:21:31.002Z,101576.91
2023-05-06T11:22:39.603Z,101571.44
2023-05-06T11:23:46.913Z,101572.34
2023-05-06T11:24:48.450Z,101576.00
2023-05-06T11:25:51.237Z,101577.78
2023-05-06T11:26:53.227Z,101572.34
2023-05-06T11:27:55.938Z,101579.63
2023-05-06T11:29:02.071Z,101574.16
2023-05-06T11:30:04.708Z,101578.72
2023-05-06T11:31:07.836Z,101590.50
2023-05-06T11:32:22.206Z,101594.13
2023-05-06T11:33:27.571Z,101585.97
2023-05-06T11:34:30.982Z,101585.94
2023-05-06T11:35:36.796Z,101587.75
2023-05-06T11:36:49.525Z,101587.78
2023-05-06T11:37:52.113Z,101584.16
2023-05-06T11:38:54.196Z,101587.78
2023-05-06T11:39:55.536Z,101589.59
2023-05-06T11:40:56.948Z,101587.81
2023-05-06T11:42:00.116Z,101589.59
2023-05-06T11:43:14.965Z,101583.25
2023-05-06T11:44:27.407Z,101595.06
2023-05-06T11:45:40.661Z,101592.31
2023-05-06T11:46:43.812Z,101595.06
2023-05-06T11:47:45.591Z,101593.22
2023-05-06T11:48:47.158Z,101597.78
2023-05-06T11:49:53.199Z,101602.31
2023-05-06T11:50:55.685Z,101603.19
2023-05-06T11:51:57.249Z,101604.09
2023-05-06T11:52:58.692Z,101598.66
2023-05-06T11:54:08.674Z,101612.25
2023-05-06T11:55:11.275Z,101604.09
2023-05-06T11:56:12.707Z,101602.31
2023-05-06T11:57:14.184Z,101614.09
2023-05-06T11:58:17.474Z,101604.09
2023-05-06T11:59:34.871Z,101618.59
2023-05-06T12:00:36.255Z,101609.56